Time;durP1;ratioP1;P1;durP2;ratioP2;P2;SDS_P1;SDS_P2;PMS_P1;PMS_P2;Temp;Humidity;BMP_temperature;BMP_pressure;BME280_temperature;BME280_humidity;BME280_pressure;Samples;Min_cycle;Max_cycle;Signal;HPM_P1;HPM_P2
2023/12/05 00:06:17;;;;;;;26.47;13.43;;;;;;;;;;20839369;28;20642;-66
2023/12/05 00:16:20;;;;;;;22.27;13.33;;;;;;;;;;20838240;28;20248;-77
2023/12/05 00:26:22;;;;;;;23.83;13.73;;;;;;;;;;20837798;28;20248;-66
2023/12/05 00:36:24;;;;;;;22.03;12.90;;;;;;;;;;20836911;28;20673;-68
2023/12/05 00:46:27;;;;;;;22.30;13.50;;;;;;;;;;20836021;28;20271;-69
2023/12/05 00:56:30;;;;;;;26.20;14.17;;;;;;;;;;20835728;28;20724;-73
2023/12/05 01:06:32;;;;;;;22.93;13.87;;;;;;;;;;20834471;28;20204;-76
2023/12/05 01:16:34;;;;;;;23.93;13.80;;;;;;;;;;20833495;28;20700;-65
2023/12/05 01:26:37;;;;;;;23.50;13.80;;;;;;;;;;20833390;28;20294;-65
2023/12/05 01:36:39;;;;;;;27.07;14.63;;;;;;;;;;20831481;28;20319;-66
2023/12/05 01:46:42;;;;;;;27.33;14.93;;;;;;;;;;20831475;28;20208;-67
2023/12/05 01:56:44;;;;;;;23.00;14.27;;;;;;;;;;20831424;28;20239;-66
2023/12/05 02:06:49;;;;;;;26.10;14.73;;;2.90;95.80;;;;;;20830204;28;20214;-67
2023/12/05 02:17:05;;;;;;;24.93;14.37;;;5.90;97.20;;;;;;20829853;28;20276;-69
2023/12/05 02:27:20;;;;;;;26.03;14.80;;;;;;;;;;20829920;28;20602;-73
2023/12/05 02:37:47;;;;;;;23.93;13.93;;;4.70;96.70;;;;;;20829309;28;20243;-73
2023/12/05 02:47:50;;;;;;;26.93;14.97;;;;;;;;;;20834126;28;20200;-72
2023/12/05 02:57:52;;;;;;;24.03;14.10;;;;;;;;;;20844531;28;20657;-74
2023/12/05 03:07:54;;;;;;;25.23;14.43;;;;;;;;;;20844035;28;20775;-73
2023/12/05 03:17:56;;;;;;;23.80;14.47;;;;;;;;;;20842986;28;20782;-71
2023/12/05 03:27:59;;;;;;;24.13;14.40;;;;;;;;;;20842364;28;20262;-65
2023/12/05 03:38:01;;;;;;;25.20;15.90;;;;;;;;;;20841688;28;20268;-66
2023/12/05 03:48:03;;;;;;;27.17;16.17;;;;;;;;;;20840556;28;20211;-68
2023/12/05 03:58:05;;;;;;;27.97;15.83;;;;;;;;;;20839224;28;20241;-71
2023/12/05 04:08:09;;;;;;;27.37;16.83;;;;;;;;;;20839407;28;20327;-75
2023/12/05 04:18:11;;;;;;;27.20;16.00;;;;;;;;;;20838384;28;20264;-71
2023/12/05 04:28:13;;;;;;;27.47;16.63;;;;;;;;;;20837622;28;20656;-70
2023/12/05 04:38:16;;;;;;;27.90;15.40;;;;;;;;;;20836022;28;20267;-72
2023/12/05 04:48:18;;;;;;;28.77;16.83;;;;;;;;;;20835899;28;20208;-69
2023/12/05 04:58:21;;;;;;;29.50;17.63;;;;;;;;;;20834094;28;20241;-71
2023/12/05 05:08:23;;;;;;;26.73;16.43;;;;;;;;;;20833746;28;20325;-73
2023/12/05 05:18:25;;;;;;;28.60;16.80;;;;;;;;;;20833214;28;20327;-75
2023/12/05 05:28:27;;;;;;;34.67;19.33;;;;;;;;;;20833058;28;20672;-71
2023/12/05 05:38:29;;;;;;;32.47;17.67;;;;;;;;;;20832393;28;20228;-75
2023/12/05 05:48:32;;;;;;;32.10;17.30;;;;;;;;;;20831389;28;20576;-72
2023/12/05 05:58:34;;;;;;;33.37;18.43;;;;;;;;;;20830497;28;20290;-77
2023/12/05 06:08:36;;;;;;;33.57;18.17;;;;;;;;;;20830536;28;20228;-74
2023/12/05 06:18:38;;;;;;;31.47;17.93;;;;;;;;;;20828434;28;20763;-67
2023/12/05 06:28:41;;;;;;;28.77;17.80;;;;;;;;;;20828477;28;20216;-69
2023/12/05 06:38:43;;;;;;;29.77;17.67;;;;;;;;;;20828845;28;20229;-69
2023/12/05 06:48:46;;;;;;;32.10;18.40;;;;;;;;;;20828062;28;20707;-67
2023/12/05 06:58:49;;;;;;;31.00;18.60;;;;;;;;;;20827462;28;20232;-70
2023/12/05 07:08:51;;;;;;;30.97;19.13;;;;;;;;;;20827317;28;20246;-70
2023/12/05 07:18:54;;;;;;;28.37;17.93;;;;;;;;;;20825897;28;20320;-68
2023/12/05 07:28:56;;;;;;;37.63;21.00;;;;;;;;;;20826849;28;20669;-70
2023/12/05 07:38:59;;;;;;;42.30;21.10;;;;;;;;;;20837489;28;20233;-71
2023/12/05 07:49:02;;;;;;;42.77;21.00;;;3.80;99.90;;;;;;20840387;28;20292;-71
2023/12/05 07:59:04;;;;;;;35.97;19.13;;;;;;;;;;20839449;28;20233;-68
